Overview Statistics Trail Chart Weather Telemetry Raw packets
 

This is the latest recevied weather packets stored in our database for station/object KGRR-WX. If no packets are shown the sender has not sent any weather packets the latest 10 day(s).

<< 12 13 14 15 16 17 18 >>
Time Temp. Humidity Pressure Rain* Wind** Luminosity Snow
1788332407 21.67° C 92% 985.3 hPa 0 mm - - -
1788331505 22.22° C 90% 984.9 hPa 0 mm - - -
1788330605 22.22° C 90% 984.9 hPa 0 mm - - -
1788329705 22.22° C 90% 984.9 hPa 0 mm - - -
1788328806 22.22° C 90% 984.9 hPa 0 mm - - -
1788327941 -17.78° C 100% - 0 mm - - -
1788327004 22.78° C 90% 985.1 hPa 0 mm - - -
1788326105 22.78° C 90% 985.1 hPa 0 mm - - -
1788325205 22.78° C 90% 985.1 hPa 0 mm - - -
1788324358 -17.78° C 100% - 0 mm - - -
1788323405 22.78° C 84% 985 hPa 0 mm - - -
1788322526 22.78° C 84% 985 hPa 0 mm - - -
1788321605 23.33° C 84% 985 hPa 0 mm - - -
1788320705 23.33° C 82% 985.2 hPa 0 mm - - -
1788319805 23.33° C 83% 985.5 hPa 0 mm - - -
1788318905 23.33° C 83% 985.5 hPa 0 mm - - -
1788318005 23.33° C 83% 985.5 hPa 0 mm - - -
1788317105 23.33° C 81% 985 hPa 0 mm - - -
1788316205 23.89° C 83% 985.5 hPa 0 mm - - -
1788315306 23.33° C 83% 985.4 hPa 0 mm - - -
1788314405 23.33° C 90% 986.2 hPa 0 mm - - -
1788313504 23.89° C 89% 984.9 hPa 0 mm - - -
1788312605 23.89° C 89% 984.9 hPa 0 mm - - -
1788311705 24.44° C 89% 984.9 hPa 0 mm - - -
1788310805 24.44° C 89% 984.9 hPa 0 mm - - -

* Rain latest hour (hover to see other rain measurements)
** Current wind speed in m/s (hover to see current wind gust speed)